Current Weather

Helsinki
P60°19' E24°57'

2017-05-29
08:30:00
Temperature
14.9 °C / 59 °F
Wind chill
13.7 °C / 57 °F
A.P. 1001.9 hPa
R.H. 84 %
Wind
5.0 m/s


Finland maps



Mobile Weather Page



Sunrise & set in Helsinki
Sunrise & set in Utsjoki

Weather in selectable METAR weather stations

1) Select the Continent / Group:

[Europe]  [Asia]  [Africa]  [North America]  [South America]  
[Central America and Caribbean]  [Oceania]  [Antarctica]  
2) Select the Weather station (City):


METAR = EFHK 290520Z 35009KT 9999 FEW020 BKN063 15/12 Q1001 NOSIG

STATIONEFHK
NAMEHelsinki/Vantaa Arpt, --, FI
OBSERVEDMon May 29 08:20 (29.05.2017 05:20 UTC), 32 min ago
TEMPERATURE15.0°C ( 59°F)
WINDCHILL13.9 °C (57 °F)
WINDN (350 degrees) at 10 MPH (9 knots; 4.6 m/s)
HUMIDITY82%
PRESSURE1001 hPa
Forecast 
Click here to search the weather station or to give the station identifier
(four-character ICAO Location Indicator) for weather data.